Time;durP1;ratioP1;P1;durP2;ratioP2;P2;SDS_P1;SDS_P2;PMS_P1;PMS_P2;Temp;Humidity;BMP_temperature;BMP_pressure;BME280_temperature;BME280_humidity;BME280_pressure;Samples;Min_cycle;Max_cycle;Signal;HPM_P1;HPM_P2
2022/09/15 00:02:12;;;;;;;5.43;4.00;;;19.50;99.90;;;;;;6126941;23;20411;-88
2022/09/15 00:04:40;;;;;;;6.13;4.10;;;19.50;99.90;;;;;;6126305;23;20443;-87
2022/09/15 00:07:07;;;;;;;7.33;4.70;;;19.50;99.90;;;;;;6130240;23;20415;-87
2022/09/15 00:09:51;;;;;;;6.70;4.53;;;19.50;99.90;;;;;;6132203;23;20436;-87
2022/09/15 00:12:18;;;;;;;5.27;4.37;;;19.50;99.90;;;;;;6127444;23;20404;-88
2022/09/15 00:14:45;;;;;;;5.47;3.93;;;19.50;99.90;;;;;;6127154;23;20408;-87
2022/09/15 00:17:11;;;;;;;6.30;4.20;;;19.50;99.90;;;;;;6126990;23;20412;-88
2022/09/15 00:19:39;;;;;;;6.00;5.10;;;19.30;99.90;;;;;;6125922;23;20448;-88
2022/09/15 00:22:07;;;;;;;6.87;5.57;;;19.30;99.90;;;;;;6133760;23;20479;-86
2022/09/15 00:24:34;;;;;;;7.23;5.80;;;19.30;99.90;;;;;;6154475;23;20518;-85
2022/09/15 00:27:01;;;;;;;6.83;4.40;;;19.30;99.90;;;;;;6154816;23;20428;-85
2022/09/15 00:29:28;;;;;;;6.63;4.87;;;19.30;99.90;;;;;;6153518;23;20464;-85
2022/09/15 00:31:54;;;;;;;4.67;4.17;;;19.30;99.90;;;;;;6134616;23;20439;-86
2022/09/15 00:34:21;;;;;;;6.47;4.30;;;19.30;99.90;;;;;;6128915;23;20412;-86
2022/09/15 00:36:50;;;;;;;5.47;4.50;;;19.20;99.90;;;;;;6127699;23;20417;-85
2022/09/15 00:39:17;;;;;;;4.80;4.40;;;19.20;99.90;;;;;;6127303;23;20416;-85
2022/09/15 00:41:44;;;;;;;5.60;4.30;;;19.20;99.90;;;;;;6127853;23;20487;-85
2022/09/15 00:44:44;;;;;;;7.33;4.40;;;19.30;99.90;;;;;;6154582;23;20453;-83
2022/09/15 00:47:11;;;;;;;5.67;4.80;;;19.20;99.90;;;;;;6154550;23;20403;-83
2022/09/15 00:49:39;;;;;;;6.23;5.00;;;19.20;99.90;;;;;;6134194;23;20906;-85
2022/09/15 00:52:10;;;;;;;4.60;3.90;;;19.30;99.90;;;;;;6125237;23;20421;-86
2022/09/15 00:54:41;;;;;;;8.40;4.57;;;19.30;99.90;;;;;;6139678;23;20391;-86
2022/09/15 00:57:11;;;;;;;3.50;3.20;;;19.30;99.90;;;;;;6131426;23;20743;-83
2022/09/15 00:59:40;;;;;;;4.83;3.57;;;19.40;99.90;;;;;;6152164;23;20393;-85
2022/09/15 01:02:13;;;;;;;4.27;3.27;;;19.30;99.90;;;;;;6144111;23;20412;-85
2022/09/15 01:04:40;;;;;;;4.57;3.10;;;19.40;99.90;;;;;;6128212;23;20425;-85
2022/09/15 01:07:12;;;;;;;3.43;2.57;;;19.40;99.90;;;;;;6127991;23;20408;-86
2022/09/15 01:09:44;;;;;;;4.00;3.57;;;19.40;99.90;;;;;;6127927;23;20418;-86
2022/09/15 01:12:11;;;;;;;4.50;3.17;;;19.40;99.90;;;;;;6126956;23;20434;-86
2022/09/15 01:14:38;;;;;;;6.50;3.30;;;19.50;99.90;;;;;;6126907;23;20397;-86
2022/09/15 01:17:15;;;;;;;5.67;3.10;;;19.50;99.90;;;;;;6127455;23;20415;-87
2022/09/15 01:20:23;;;;;;;4.13;3.27;;;19.50;99.90;;;;;;6127746;23;20416;-85
2022/09/15 01:23:05;;;;;;;4.30;3.90;;;19.50;99.90;;;;;;6065606;23;20425;-84
2022/09/15 01:25:52;;;;;;;6.90;4.50;;;19.50;99.90;;;;;;6124124;23;20507;-86
2022/09/15 01:28:42;;;;;;;7.50;3.80;;;19.40;99.90;;;;;;6121194;23;20403;-86
2022/09/15 01:31:20;;;;;;;6.97;4.60;;;19.50;99.90;;;;;;6105667;23;20779;-84
2022/09/15 01:33:53;;;;;;;7.13;4.77;;;19.50;99.90;;;;;;6119880;23;20876;-85
2022/09/15 01:36:25;;;;;;;5.40;4.40;;;19.50;99.90;;;;;;6103291;23;20386;-85
2022/09/15 01:39:00;;;;;;;6.70;4.60;;;19.50;99.90;;;;;;6106529;23;20393;-84
2022/09/15 01:41:30;;;;;;;5.53;3.50;;;19.50;99.90;;;;;;6119748;23;20460;-84
2022/09/15 01:44:04;;;;;;;5.33;3.67;;;19.40;99.90;;;;;;6109181;23;20405;-85
2022/09/15 01:46:35;;;;;;;4.70;3.20;;;19.30;99.90;;;;;;6102599;23;20386;-86
2022/09/15 01:49:03;;;;;;;7.13;3.37;;;19.40;99.90;;;;;;6106597;23;20398;-85
2022/09/15 01:51:32;;;;;;;2.93;2.63;;;19.30;99.90;;;;;;6101992;23;20433;-86
2022/09/15 01:54:02;;;;;;;3.67;2.57;;;19.30;99.90;;;;;;6100298;23;20417;-86
2022/09/15 01:56:29;;;;;;;5.77;2.77;;;19.30;99.90;;;;;;6100988;23;20390;-85
2022/09/15 01:58:56;;;;;;;3.80;2.63;;;19.20;99.90;;;;;;6123744;23;20488;-84
2022/09/15 02:01:28;;;;;;;5.20;3.50;;;19.20;99.90;;;;;;6123315;23;20423;-84
2022/09/15 02:04:01;;;;;;;4.73;2.80;;;19.10;99.90;;;;;;6107479;23;20396;-86
2022/09/15 02:06:36;;;;;;;4.93;2.70;;;19.10;99.90;;;;;;6099966;23;20436;-86
2022/09/15 02:09:07;;;;;;;3.43;2.60;;;19.20;99.90;;;;;;6098927;23;20408;-85
2022/09/15 02:11:36;;;;;;;3.90;2.70;;;19.10;99.90;;;;;;6098068;23;20429;-86
2022/09/15 02:14:11;;;;;;;4.67;2.43;;;19.10;99.90;;;;;;6097758;23;20946;-86
2022/09/15 02:16:42;;;;;;;3.17;2.77;;;19.10;99.90;;;;;;6102425;23;20401;-85
2022/09/15 02:19:19;;;;;;;3.30;2.57;;;19.20;99.90;;;;;;6113870;23;20848;-84
2022/09/15 02:21:52;;;;;;;2.33;2.10;;;19.20;99.90;;;;;;6124350;23;20475;-85
2022/09/15 02:24:25;;;;;;;4.73;2.27;;;19.20;99.90;;;;;;6137415;23;20412;-85
2022/09/15 02:26:53;;;;;;;2.90;2.13;;;19.30;99.90;;;;;;6134098;23;20403;-86
2022/09/15 02:29:23;;;;;;;8.30;2.57;;;19.30;99.90;;;;;;6127304;23;20465;-84
2022/09/15 02:31:51;;;;;;;2.50;2.30;;;19.30;99.90;;;;;;6127530;23;20430;-85
2022/09/15 02:34:24;;;;;;;8.73;2.37;;;19.40;99.90;;;;;;6126967;23;20407;-85
2022/09/15 02:36:53;;;;;;;2.20;1.93;;;19.40;99.90;;;;;;6131003;23;20400;-84
2022/09/15 02:39:24;;;;;;;2.60;2.10;;;19.40;99.90;;;;;;6137804;23;20749;-85
2022/09/15 02:41:52;;;;;;;1.97;1.77;;;19.40;99.90;;;;;;6126923;23;20447;-84
2022/09/15 02:44:19;;;;;;;2.53;1.20;;;19.40;99.90;;;;;;6145557;23;20388;-84
2022/09/15 02:46:45;;;;;;;2.40;1.97;;;19.40;99.90;;;;;;6140178;23;20474;-85
2022/09/15 02:49:13;;;;;;;4.37;2.00;;;19.40;99.90;;;;;;6127947;23;20380;-85
2022/09/15 02:51:41;;;;;;;1.83;1.63;;;19.40;99.90;;;;;;6127421;23;20436;-85
2022/09/15 02:54:08;;;;;;;3.50;1.80;;;19.40;99.90;;;;;;6127461;23;20427;-85
2022/09/15 02:56:34;;;;;;;1.97;1.53;;;19.40;99.90;;;;;;6128006;23;20431;-85
2022/09/15 02:59:01;;;;;;;4.23;1.90;;;19.50;99.90;;;;;;6128807;23;20412;-84
2022/09/15 03:01:31;;;;;;;2.80;1.80;;;19.50;99.90;;;;;;6133197;23;20442;-85
2022/09/15 03:03:58;;;;;;;3.97;2.23;;;19.50;99.90;;;;;;6129626;23;20413;-86
2022/09/15 03:06:26;;;;;;;3.33;1.60;;;19.50;99.90;;;;;;6136143;23;20450;-86
2022/09/15 03:08:57;;;;;;;2.70;1.87;;;19.40;99.90;;;;;;6139246;23;20408;-86
2022/09/15 03:11:25;;;;;;;3.60;2.50;;;19.40;99.90;;;;;;6128864;23;20846;-85
2022/09/15 03:13:53;;;;;;;2.53;1.93;;;19.40;99.90;;;;;;6128174;23;20417;-86
2022/09/15 03:16:21;;;;;;;2.60;1.80;;;19.40;99.90;;;;;;6151788;23;20420;-86
2022/09/15 03:18:48;;;;;;;1.97;1.53;;;19.30;99.90;;;;;;6134027;23;20407;-86
2022/09/15 03:21:16;;;;;;;3.37;1.73;;;19.30;99.90;;;;;;6128610;23;20436;-86
2022/09/15 03:23:43;;;;;;;3.07;2.13;;;19.30;99.90;;;;;;6128399;23;20412;-86
2022/09/15 03:26:11;;;;;;;1.90;1.60;;;19.30;99.90;;;;;;6129506;23;21138;-87
2022/09/15 03:28:39;;;;;;;2.17;1.63;;;19.30;99.90;;;;;;6127679;23;20418;-86
2022/09/15 03:31:06;;;;;;;2.43;1.43;;;19.30;99.90;;;;;;6127695;23;20428;-87
2022/09/15 03:33:33;;;;;;;1.67;1.57;;;19.40;99.90;;;;;;6127526;23;20431;-86
2022/09/15 03:36:00;;;;;;;2.90;1.60;;;19.30;99.90;;;;;;6127579;23;20408;-86
2022/09/15 03:38:27;;;;;;;1.80;1.33;;;19.30;99.90;;;;;;6127827;23;20475;-86
2022/09/15 03:41:01;;;;;;;2.23;1.70;;;19.30;99.90;;;;;;6129728;23;20436;-86
2022/09/15 03:43:30;;;;;;;2.20;1.80;;;19.30;99.90;;;;;;6137720;23;20395;-86
2022/09/15 03:45:58;;;;;;;4.00;1.60;;;19.30;99.90;;;;;;6136052;23;20446;-86
2022/09/15 03:48:26;;;;;;;1.70;1.40;;;19.30;99.90;;;;;;6131480;23;20412;-86
2022/09/15 03:50:53;;;;;;;3.83;1.60;;;19.30;99.90;;;;;;6130037;23;20424;-86
2022/09/15 03:53:20;;;;;;;3.13;1.80;;;19.30;99.90;;;;;;6129580;23;20435;-86
2022/09/15 03:55:47;;;;;;;5.13;1.60;;;19.20;99.90;;;;;;6131034;23;20411;-86
2022/09/15 03:58:15;;;;;;;3.90;1.70;;;19.20;99.90;;;;;;6141589;23;20402;-85
2022/09/15 04:00:44;;;;;;;2.80;1.50;;;19.30;99.90;;;;;;6141698;23;20420;-85
2022/09/15 04:03:11;;;;;;;3.23;1.60;;;19.30;99.90;;;;;;6128557;23;20416;-86
2022/09/15 04:05:38;;;;;;;2.90;1.90;;;19.30;99.90;;;;;;6127562;23;20444;-87
2022/09/15 04:08:05;;;;;;;3.20;1.40;;;19.30;99.90;;;;;;6130381;23;20425;-84
2022/09/15 04:10:32;;;;;;;3.00;1.80;;;19.30;99.90;;;;;;6128229;23;20408;-86
2022/09/15 04:12:59;;;;;;;4.03;1.80;;;19.30;99.90;;;;;;6128397;23;20416;-86
2022/09/15 04:15:25;;;;;;;2.23;1.80;;;19.20;99.90;;;;;;6129138;23;20411;-86
2022/09/15 04:17:53;;;;;;;3.40;2.00;;;19.20;99.90;;;;;;6128230;23;20409;-87
2022/09/15 04:20:20;;;;;;;2.13;1.83;;;19.20;99.90;;;;;;6134236;23;20408;-85
2022/09/15 04:22:47;;;;;;;6.13;2.07;;;19.20;99.90;;;;;;6143021;23;20408;-85
2022/09/15 04:25:14;;;;;;;3.13;1.80;;;19.20;99.90;;;;;;6128888;23;20451;-84
2022/09/15 04:27:40;;;;;;;2.20;1.43;;;19.20;99.90;;;;;;6128573;23;20808;-85
2022/09/15 04:30:08;;;;;;;3.00;1.93;;;19.20;99.90;;;;;;6131578;23;20411;-85
2022/09/15 04:32:35;;;;;;;2.97;1.53;;;19.20;99.90;;;;;;6152357;23;20491;-85
2022/09/15 04:35:04;;;;;;;3.23;1.80;;;19.10;99.90;;;;;;6148838;23;20412;-85
2022/09/15 04:37:30;;;;;;;2.30;1.80;;;19.10;99.90;;;;;;6128100;23;20418;-86
2022/09/15 04:39:57;;;;;;;2.13;1.57;;;19.20;99.90;;;;;;6130489;23;20408;-86
2022/09/15 04:42:24;;;;;;;3.40;1.60;;;19.10;99.90;;;;;;6131167;23;20424;-86
2022/09/15 04:44:51;;;;;;;8.30;1.80;;;19.10;99.90;;;;;;6153434;23;20412;-85
2022/09/15 04:47:18;;;;;;;2.63;2.13;;;19.10;99.90;;;;;;6154679;23;20519;-85
2022/09/15 04:49:45;;;;;;;2.20;1.70;;;19.10;99.90;;;;;;6148945;23;20491;-86
2022/09/15 04:52:13;;;;;;;1.93;1.60;;;19.10;99.90;;;;;;6132754;23;20455;-87
2022/09/15 04:54:40;;;;;;;2.03;1.53;;;19.10;99.90;;;;;;6129432;23;20431;-85
2022/09/15 04:57:06;;;;;;;4.10;2.17;;;19.00;99.90;;;;;;6128717;23;20451;-86
2022/09/15 04:59:33;;;;;;;2.87;1.67;;;19.10;99.90;;;;;;6132364;23;20415;-86
2022/09/15 05:02:00;;;;;;;2.53;1.53;;;19.00;99.90;;;;;;6134040;23;20958;-86
2022/09/15 05:04:29;;;;;;;2.50;1.97;;;19.20;99.90;;;;;;6130369;23;20388;-84
2022/09/15 05:06:58;;;;;;;2.90;1.50;;;19.20;99.90;;;;;;6139569;23;20769;-85
2022/09/15 05:09:28;;;;;;;3.03;1.80;;;19.20;99.90;;;;;;6152399;23;20400;-82
2022/09/15 05:12:00;;;;;;;3.27;1.57;;;19.20;99.90;;;;;;6151858;23;20428;-84
2022/09/15 05:14:31;;;;;;;3.47;1.77;;;19.20;99.90;;;;;;6143886;23;20400;-84
2022/09/15 05:19:49;;;;;;;4.57;1.60;;;19.30;99.90;;;;;;6108266;23;20412;-87
2022/09/15 05:22:24;;;;;;;3.70;2.00;;;19.30;99.90;;;;;;6131680;23;20440;-86
2022/09/15 05:28:25;;;;;;;2.50;1.70;;;19.30;99.90;;;;;;5899597;24;20506;-87
2022/09/15 05:36:35;;;;;;;2.73;1.70;;;19.10;99.90;;;;;;6072308;23;20415;-85
2022/09/15 05:39:37;;;;;;;;;;;;;;;;;;;;;
2022/09/15 05:45:41;;;;;;;2.90;1.87;;;19.20;99.90;;;;;;6053391;23;20429;-78
2022/09/15 05:48:08;;;;;;;5.60;1.80;;;19.10;99.90;;;;;;6040041;23;20512;-79
2022/09/15 05:50:34;;;;;;;5.50;1.57;;;19.20;99.90;;;;;;6091183;23;20412;-80
2022/09/15 05:53:01;;;;;;;2.40;1.80;;;19.20;99.90;;;;;;6128865;23;20416;-80
2022/09/15 05:55:28;;;;;;;1.80;1.30;;;19.20;99.90;;;;;;6128348;23;20447;-79
2022/09/15 05:57:56;;;;;;;3.43;1.53;;;19.20;99.90;;;;;;6128087;23;20433;-79
2022/09/15 06:00:23;;;;;;;2.40;1.40;;;19.20;99.90;;;;;;6127815;23;20403;-79
2022/09/15 06:02:51;;;;;;;4.47;2.00;;;19.20;99.90;;;;;;6129189;23;20412;-79
2022/09/15 06:05:17;;;;;;;2.20;1.83;;;19.20;99.90;;;;;;6128584;23;20392;-79
2022/09/15 06:07:44;;;;;;;1.37;1.13;;;19.20;99.90;;;;;;6133120;23;20396;-79
2022/09/15 06:10:11;;;;;;;2.03;1.60;;;19.30;99.90;;;;;;6131718;23;20812;-79
2022/09/15 06:12:38;;;;;;;2.13;1.90;;;19.30;99.90;;;;;;6129134;23;20416;-79
2022/09/15 06:15:07;;;;;;;3.03;1.87;;;19.30;99.90;;;;;;6128503;23;20808;-79
2022/09/15 06:17:33;;;;;;;1.60;1.40;;;19.30;99.90;;;;;;6135491;23;20405;-77
2022/09/15 06:20:00;;;;;;;3.90;1.53;;;19.40;99.90;;;;;;6133919;23;20415;-78
2022/09/15 06:22:28;;;;;;;1.60;1.40;;;19.40;99.90;;;;;;6132426;23;20436;-77
2022/09/15 06:24:54;;;;;;;5.17;1.60;;;19.40;99.90;;;;;;6128574;23;20396;-78
2022/09/15 06:27:21;;;;;;;2.37;1.53;;;19.50;99.90;;;;;;6128832;23;20439;-80
2022/09/15 06:29:49;;;;;;;1.73;1.33;;;19.60;99.90;;;;;;6131566;23;20408;-88
2022/09/15 06:32:18;;;;;;;4.57;1.73;;;19.60;99.90;;;;;;6128543;23;20436;-88
2022/09/15 06:34:47;;;;;;;1.60;1.27;;;19.50;99.90;;;;;;6138064;23;20435;-86
2022/09/15 06:37:22;;;;;;;2.00;1.20;;;19.40;99.90;;;;;;6130777;23;20405;-87
2022/09/15 06:40:15;;;;;;;5.43;1.80;;;19.30;99.90;;;;;;6127021;23;20813;-87
2022/09/15 06:43:00;;;;;;;5.23;1.77;;;19.20;99.90;;;;;;6132293;23;20420;-89
2022/09/15 06:48:32;;;;;;;3.93;2.50;;;18.80;99.90;;;;;;6107102;23;20760;-89
2022/09/15 06:51:05;;;;;;;4.43;2.70;;;18.80;99.90;;;;;;6126862;23;20823;-88
2022/09/15 06:53:40;;;;;;;5.30;2.33;;;18.80;99.90;;;;;;6127868;23;20448;-87
2022/09/15 06:56:19;;;;;;;4.30;2.10;;;18.80;99.90;;;;;;6127867;23;20415;-88
2022/09/15 06:59:03;;;;;;;7.33;2.47;;;18.80;99.90;;;;;;6136315;23;20410;-88
2022/09/15 07:05:05;;;;;;;2.90;2.10;;;18.60;99.90;;;;;;6027350;23;20835;-87
2022/09/15 07:07:35;;;;;;;3.87;2.70;;;18.60;99.90;;;;;;6128892;23;20444;-89
2022/09/15 07:10:05;;;;;;;3.10;2.23;;;18.50;99.90;;;;;;6126955;23;20973;-87
2022/09/15 07:12:31;;;;;;;3.77;2.57;;;18.50;99.90;;;;;;6128620;23;20765;-87
2022/09/15 07:15:02;;;;;;;3.60;2.27;;;18.40;99.90;;;;;;6127683;23;20470;-89
2022/09/15 07:17:36;;;;;;;3.30;2.27;;;18.40;99.90;;;;;;6127818;23;20399;-89
2022/09/15 07:23:24;;;;;;;3.70;2.27;;;18.50;99.90;;;;;;6130173;23;20404;-91
2022/09/15 07:26:06;;;;;;;4.57;2.87;;;18.50;99.90;;;;;;6129463;23;20463;-89
2022/09/15 07:29:00;;;;;;;3.83;2.60;;;18.40;99.90;;;;;;6128116;23;20387;-91
2022/09/15 07:31:34;;;;;;;14.17;2.53;;;18.40;99.90;;;;;;6137376;23;20522;-91
2022/09/15 07:34:04;;;;;;;7.17;3.17;;;18.40;99.90;;;;;;6141538;23;20408;-88
2022/09/15 07:36:32;;;;;;;2.70;2.50;;;18.40;99.90;;;;;;6138962;23;20400;-83
2022/09/15 07:38:59;;;;;;;4.53;2.27;;;18.40;99.90;;;;;;6127885;23;20411;-83
2022/09/15 07:41:27;;;;;;;8.40;2.97;;;18.40;99.90;;;;;;6127216;23;20475;-85
2022/09/15 07:43:57;;;;;;;4.30;2.30;;;18.50;99.90;;;;;;6129504;23;20419;-91
2022/09/15 07:46:25;;;;;;;4.10;2.03;;;18.50;99.90;;;;;;6134431;23;21025;-84
2022/09/15 07:51:37;;;;;;;6.20;2.90;;;18.50;99.90;;;;;;6130349;23;20748;-85
2022/09/15 07:54:05;;;;;;;7.63;3.87;;;18.50;99.90;;;;;;6130355;23;20400;-88
2022/09/15 07:56:32;;;;;;;7.40;3.50;;;18.50;99.90;;;;;;6131444;23;20887;-88
2022/09/15 07:59:02;;;;;;;6.43;2.90;;;18.50;99.90;;;;;;6140932;23;20393;-88
2022/09/15 08:01:29;;;;;;;8.87;3.60;;;18.40;99.90;;;;;;6144278;23;20439;-84
2022/09/15 08:03:56;;;;;;;4.87;2.10;;;18.40;99.90;;;;;;6128468;23;20436;-84
2022/09/15 08:06:25;;;;;;;2.87;1.87;;;18.50;99.90;;;;;;6141812;23;20518;-84
2022/09/15 08:08:53;;;;;;;3.47;2.00;;;18.40;99.90;;;;;;6150563;23;20407;-85
2022/09/15 08:11:21;;;;;;;2.43;1.60;;;18.40;99.90;;;;;;6136401;23;20475;-82
2022/09/15 08:13:49;;;;;;;3.30;1.80;;;18.40;99.90;;;;;;6133634;23;20397;-82
2022/09/15 08:16:18;;;;;;;3.33;1.87;;;18.30;99.90;;;;;;6135969;23;20400;-83
2022/09/15 08:18:45;;;;;;;2.10;1.30;;;18.40;99.90;;;;;;6131164;23;20426;-84
2022/09/15 08:21:14;;;;;;;2.57;1.67;;;18.30;99.90;;;;;;6129908;23;20927;-85
2022/09/15 08:23:41;;;;;;;4.60;1.43;;;18.30;99.90;;;;;;6135753;23;20794;-84
2022/09/15 08:26:11;;;;;;;2.13;1.40;;;18.30;99.90;;;;;;6134181;23;20432;-84
2022/09/15 08:28:39;;;;;;;4.63;1.50;;;18.30;99.90;;;;;;6132311;23;20412;-83
2022/09/15 08:31:08;;;;;;;2.60;1.77;;;18.30;99.90;;;;;;6133814;23;20435;-82
2022/09/15 08:33:35;;;;;;;2.20;1.43;;;18.30;99.90;;;;;;6134248;23;20412;-84
2022/09/15 08:36:04;;;;;;;3.77;1.70;;;18.30;99.90;;;;;;6132419;23;20410;-82
2022/09/15 08:38:31;;;;;;;3.77;1.70;;;18.30;99.90;;;;;;6132263;23;20412;-83
2022/09/15 08:41:03;;;;;;;4.67;1.77;;;18.30;99.90;;;;;;6131888;23;20447;-83
2022/09/15 08:43:38;;;;;;;3.03;1.90;;;18.40;99.90;;;;;;6131467;23;20392;-84
2022/09/15 08:46:10;;;;;;;3.53;2.27;;;18.40;99.90;;;;;;6131324;23;20968;-84
2022/09/15 08:48:42;;;;;;;1.57;1.13;;;18.50;99.90;;;;;;6145933;23;20444;-84
2022/09/15 08:51:15;;;;;;;4.10;1.50;;;18.60;99.90;;;;;;6144259;23;20488;-82
2022/09/15 08:53:45;;;;;;;3.27;2.33;;;18.70;99.90;;;;;;6149960;23;20472;-81
2022/09/15 08:56:16;;;;;;;1.90;1.40;;;18.80;99.90;;;;;;6153291;23;20483;-82
2022/09/15 08:58:45;;;;;;;3.90;1.87;;;18.90;99.90;;;;;;6152608;23;20392;-82
2022/09/15 09:01:23;;;;;;;2.80;1.73;;;18.90;99.90;;;;;;6152089;23;20452;-84
2022/09/15 09:04:07;;;;;;;4.60;1.67;;;19.00;99.90;;;;;;6139894;23;20388;-84
2022/09/15 09:06:43;;;;;;;5.83;2.10;;;19.00;99.90;;;;;;6133094;23;20446;-84
2022/09/15 09:09:19;;;;;;;3.20;1.47;;;19.10;99.90;;;;;;6134344;23;20392;-85
2022/09/15 09:12:06;;;;;;;3.00;1.90;;;19.10;99.90;;;;;;6133920;23;20479;-85
2022/09/15 09:14:43;;;;;;;5.27;2.07;;;19.20;99.90;;;;;;6130923;23;20392;-84
2022/09/15 09:17:28;;;;;;;2.00;1.77;;;19.20;99.90;;;;;;6128626;23;20399;-85
2022/09/15 09:20:17;;;;;;;4.30;2.00;;;19.30;99.90;;;;;;6134538;23;20384;-84
2022/09/15 09:22:48;;;;;;;3.80;1.87;;;19.30;99.90;;;;;;6134731;23;20420;-85
2022/09/15 09:25:18;;;;;;;3.50;1.60;;;19.30;99.90;;;;;;6135894;23;20415;-85
2022/09/15 09:27:46;;;;;;;2.77;1.40;;;19.30;99.90;;;;;;6129787;23;20729;-84
2022/09/15 09:30:18;;;;;;;3.80;1.70;;;19.40;99.90;;;;;;6126803;23;20392;-84
2022/09/15 09:32:50;;;;;;;2.80;1.90;;;19.60;99.90;;;;;;6127979;23;20393;-84
2022/09/15 09:35:23;;;;;;;2.13;1.40;;;19.80;99.90;;;;;;6128382;23;20408;-84
2022/09/15 09:37:52;;;;;;;2.17;1.00;;;19.80;99.90;;;;;;6129318;23;20404;-84
2022/09/15 09:40:20;;;;;;;2.30;0.90;;;19.70;99.90;;;;;;6136390;23;20408;-83
2022/09/15 09:42:47;;;;;;;1.37;0.80;;;19.60;99.90;;;;;;6148946;23;20467;-84
2022/09/15 09:45:17;;;;;;;1.60;1.00;;;19.40;99.90;;;;;;6148377;23;20404;-84
2022/09/15 09:47:45;;;;;;;1.63;0.97;;;19.30;99.90;;;;;;6150470;23;20428;-83
2022/09/15 09:50:32;;;;;;;1.40;0.90;;;19.30;99.90;;;;;;6136336;23;20412;-85
2022/09/15 09:52:59;;;;;;;1.10;0.83;;;19.30;99.90;;;;;;6132768;23;20392;-85
2022/09/15 09:55:27;;;;;;;2.83;1.00;;;19.20;99.90;;;;;;6137764;23;20475;-83
2022/09/15 09:58:10;;;;;;;1.20;0.80;;;19.20;99.90;;;;;;6146344;23;20515;-85
2022/09/15 10:00:40;;;;;;;2.20;1.07;;;19.10;99.90;;;;;;6128789;23;20439;-85
2022/09/15 10:03:14;;;;;;;2.23;1.23;;;19.10;99.90;;;;;;6128687;23;20392;-85
2022/09/15 10:05:42;;;;;;;2.97;1.10;;;19.00;99.90;;;;;;6129036;23;20412;-85
2022/09/15 10:08:15;;;;;;;2.70;1.73;;;18.80;99.90;;;;;;6128445;23;20428;-85
2022/09/15 10:10:49;;;;;;;1.73;0.73;;;18.60;99.90;;;;;;6131707;23;20432;-84
2022/09/15 10:13:16;;;;;;;1.60;0.93;;;18.50;99.90;;;;;;6133090;23;20395;-84
2022/09/15 10:15:52;;;;;;;1.97;1.20;;;18.40;99.90;;;;;;6126660;23;20415;-84
2022/09/15 10:18:30;;;;;;;2.43;1.53;;;18.30;99.90;;;;;;6129377;23;20414;-84
2022/09/15 10:20:57;;;;;;;1.87;1.00;;;18.20;99.90;;;;;;6130649;23;20903;-84
2022/09/15 10:23:26;;;;;;;2.63;1.23;;;18.10;99.90;;;;;;6127177;23;20477;-85
2022/09/15 10:25:57;;;;;;;2.77;0.97;;;18.10;99.90;;;;;;6126755;23;20412;-84
2022/09/15 10:28:25;;;;;;;2.90;1.30;;;18.10;99.90;;;;;;6140194;23;20531;-86
2022/09/15 10:31:05;;;;;;;1.70;1.30;;;18.10;99.90;;;;;;6147719;23;20463;-83
2022/09/15 10:33:34;;;;;;;1.40;1.17;;;18.00;99.90;;;;;;6145037;23;20411;-82
2022/09/15 10:36:04;;;;;;;3.67;1.93;;;18.00;99.90;;;;;;6151257;23;20432;-82
2022/09/15 10:38:41;;;;;;;5.33;2.33;;;17.90;99.90;;;;;;6145371;23;20392;-83
2022/09/15 10:41:20;;;;;;;3.00;1.37;;;17.70;99.90;;;;;;6152331;23;20419;-81
2022/09/15 10:43:56;;;;;;;2.00;1.70;;;17.60;99.90;;;;;;6145893;23;20403;-83
2022/09/15 10:46:28;;;;;;;3.80;2.47;;;17.50;99.90;;;;;;6135999;23;20403;-84
2022/09/15 10:49:15;;;;;;;4.70;2.30;;;17.40;99.90;;;;;;6132299;23;20432;-84
2022/09/15 10:51:55;;;;;;;3.77;2.50;;;17.40;99.90;;;;;;6146334;23;20415;-83
2022/09/15 10:54:39;;;;;;;2.90;2.60;;;17.30;99.90;;;;;;6137601;23;20442;-84
2022/09/15 10:57:18;;;;;;;3.43;3.13;;;17.30;99.90;;;;;;6129923;23;20943;-84
2022/09/15 10:59:55;;;;;;;4.20;3.80;;;17.20;99.90;;;;;;6128745;23;20746;-84
2022/09/15 11:02:40;;;;;;;5.60;3.80;;;17.10;99.90;;;;;;6126256;23;20513;-84
2022/09/15 11:05:43;;;;;;;4.03;3.73;;;17.00;99.90;;;;;;6126154;23;20400;-84
2022/09/15 11:08:36;;;;;;;5.87;4.67;;;16.90;99.90;;;;;;6111195;23;20447;-84
2022/09/15 11:11:09;;;;;;;4.20;3.80;;;16.90;99.90;;;;;;6126751;23;20428;-84
2022/09/15 11:13:50;;;;;;;4.43;4.00;;;16.90;99.90;;;;;;6129872;23;20455;-85
2022/09/15 11:16:31;;;;;;;4.17;3.87;;;16.80;99.90;;;;;;6134066;23;20454;-84
2022/09/15 11:19:20;;;;;;;4.50;3.60;;;16.80;99.90;;;;;;6148005;23;20396;-84
2022/09/15 11:21:50;;;;;;;4.40;4.00;;;16.70;99.90;;;;;;6133460;23;20487;-85
2022/09/15 11:24:35;;;;;;;7.10;4.93;;;16.70;99.90;;;;;;6133327;23;20412;-84
2022/09/15 11:27:07;;;;;;;5.83;5.23;;;16.70;99.90;;;;;;6130842;23;20404;-85
2022/09/15 11:29:41;;;;;;;7.83;5.17;;;16.70;99.90;;;;;;6134814;23;20399;-84
2022/09/15 11:32:13;;;;;;;4.97;4.40;;;16.70;99.90;;;;;;6136276;23;20428;-85
2022/09/15 11:34:49;;;;;;;6.20;4.80;;;16.70;99.90;;;;;;6147826;23;20392;-84
2022/09/15 11:37:20;;;;;;;6.27;5.17;;;16.70;99.90;;;;;;6135637;23;20396;-85
2022/09/15 11:39:53;;;;;;;5.80;5.17;;;16.70;99.90;;;;;;6133065;23;20392;-84
2022/09/15 11:42:26;;;;;;;8.57;5.40;;;16.70;99.90;;;;;;6131981;23;20744;-85
2022/09/15 11:44:55;;;;;;;5.63;5.10;;;16.70;99.90;;;;;;6136660;23;20399;-84
2022/09/15 11:47:27;;;;;;;5.63;5.00;;;16.70;99.90;;;;;;6145438;23;20452;-84
2022/09/15 11:49:57;;;;;;;5.53;5.03;;;16.60;99.90;;;;;;6136396;23;20399;-85
2022/09/15 11:52:41;;;;;;;5.67;4.70;;;16.60;99.90;;;;;;6139984;23;20480;-83
2022/09/15 11:55:19;;;;;;;6.00;5.40;;;16.60;99.90;;;;;;6153350;23;20382;-82
2022/09/15 11:57:51;;;;;;;6.17;4.93;;;16.60;99.90;;;;;;6138025;23;20406;-84
2022/09/15 12:00:18;;;;;;;5.03;4.60;;;16.60;99.90;;;;;;6138192;23;20392;-84
2022/09/15 12:02:53;;;;;;;6.10;5.50;;;16.60;99.90;;;;;;6148214;23;20392;-84
2022/09/15 12:05:26;;;;;;;5.90;5.40;;;16.70;99.90;;;;;;6152122;23;20407;-84
2022/09/15 12:07:59;;;;;;;6.03;5.53;;;16.80;99.90;;;;;;6148004;23;20477;-84
2022/09/15 12:10:31;;;;;;;5.60;5.10;;;16.90;99.90;;;;;;6135857;23;20377;-85
2022/09/15 12:12:59;;;;;;;6.30;4.97;;;17.00;99.90;;;;;;6129180;23;20392;-85
2022/09/15 12:15:27;;;;;;;5.13;3.80;;;17.10;99.90;;;;;;6128437;23;20405;-86
2022/09/15 12:18:04;;;;;;;5.97;3.43;;;17.10;99.90;;;;;;6128654;23;20419;-85
2022/09/15 12:20:37;;;;;;;4.83;3.57;;;17.10;99.90;;;;;;6129054;23;20396;-85
2022/09/15 12:23:16;;;;;;;9.43;4.63;;;17.30;99.90;;;;;;6128228;23;20507;-85
2022/09/15 12:25:55;;;;;;;4.77;4.40;;;17.40;99.90;;;;;;6130324;23;20396;-85
2022/09/15 12:28:40;;;;;;;8.80;3.83;;;17.60;99.90;;;;;;6128117;23;20540;-85
2022/09/15 12:31:24;;;;;;;5.10;3.70;;;17.80;99.90;;;;;;6128273;23;20434;-85
2022/09/15 12:33:56;;;;;;;5.10;3.83;;;18.20;99.90;;;;;;6134289;23;20965;-84
2022/09/15 12:36:44;;;;;;;4.53;3.30;;;18.60;99.90;;;;;;6150054;23;20448;-86
2022/09/15 12:39:37;;;;;;;6.00;3.60;;;18.90;99.90;;;;;;6140951;23;20871;-85
2022/09/15 12:42:19;;;;;;;6.00;4.00;;;19.10;99.90;;;;;;6135738;23;20424;-84
2022/09/15 12:44:49;;;;;;;5.33;3.90;;;19.10;99.90;;;;;;6141458;23;20459;-84
2022/09/15 12:47:27;;;;;;;5.13;3.70;;;19.10;99.90;;;;;;6136149;23;20392;-85
2022/09/15 12:50:07;;;;;;;7.10;4.30;;;19.10;99.90;;;;;;6129502;23;20388;-86
2022/09/15 12:52:45;;;;;;;7.70;4.10;;;19.10;99.90;;;;;;6153320;23;20488;-86
2022/09/15 12:55:19;;;;;;;5.97;3.80;;;19.30;99.90;;;;;;6152334;23;20376;-84
2022/09/15 12:57:51;;;;;;;5.53;4.67;;;19.40;99.90;;;;;;6143944;23;20384;-85
2022/09/15 13:00:39;;;;;;;4.70;3.60;;;19.70;99.90;;;;;;6135428;23;20392;-83
2022/09/15 13:03:23;;;;;;;4.23;3.83;;;19.90;99.90;;;;;;6132183;23;20408;-85
2022/09/15 13:06:15;;;;;;;4.17;3.63;;;20.10;99.90;;;;;;6133952;23;20416;-84
2022/09/15 13:08:50;;;;;;;4.93;3.87;;;20.10;99.90;;;;;;6139113;23;20495;-84
2022/09/15 13:11:23;;;;;;;3.67;3.37;;;20.10;99.90;;;;;;6153131;23;20416;-84
2022/09/15 13:13:56;;;;;;;5.70;3.60;;;20.00;99.90;;;;;;6138790;23;20825;-86
2022/09/15 13:16:29;;;;;;;5.10;4.20;;;20.10;99.90;;;;;;6128572;23;20911;-85
2022/09/15 13:19:06;;;;;;;7.53;4.70;;;20.30;99.90;;;;;;6139656;23;20432;-86
2022/09/15 13:21:35;;;;;;;4.63;4.23;;;20.50;99.90;;;;;;6136588;23;20442;-84
2022/09/15 13:24:08;;;;;;;4.43;3.93;;;20.60;99.90;;;;;;6127828;23;20408;-85
2022/09/15 13:26:36;;;;;;;5.27;3.60;;;20.60;99.90;;;;;;6130966;23;20418;-84
2022/09/15 13:29:05;;;;;;;4.03;3.40;;;21.00;99.90;;;;;;6147496;23;20474;-85
2022/09/15 13:31:39;;;;;;;5.90;3.70;;;20.90;99.90;;;;;;6144942;23;20416;-85
2022/09/15 13:34:47;;;;;;;4.50;3.83;;;21.00;99.90;;;;;;6145522;23;20400;-84
2022/09/15 13:37:48;;;;;;;4.60;3.77;;;21.00;99.90;;;;;;6138548;23;20377;-86
2022/09/15 13:40:37;;;;;;;4.87;2.90;;;21.20;99.90;;;;;;6132384;23;20778;-77
2022/09/15 13:43:27;;;;;;;5.40;2.60;;;21.50;99.90;;;;;;6126196;23;20844;-83